Time;durP1;ratioP1;P1;durP2;ratioP2;P2;SDS_P1;SDS_P2;PMS_P1;PMS_P2;Temp;Humidity;BMP_temperature;BMP_pressure;BME280_temperature;BME280_humidity;BME280_pressure;Samples;Min_cycle;Max_cycle;Signal;HPM_P1;HPM_P2
2024/01/09 00:01:33;;;;;;;10.13;4.07;;;;;;;-2.56;60.14;99384.37;4516922;31;20127;-72
2024/01/09 00:04:01;;;;;;;7.87;4.05;;;;;;;-2.59;60.17;99386.19;4516981;31;20089;-72
2024/01/09 00:06:28;;;;;;;7.43;3.58;;;;;;;-2.56;60.21;99386.09;4516972;31;20162;-72
2024/01/09 00:08:55;;;;;;;8.68;3.22;;;;;;;-2.53;60.46;99388.59;4516856;31;20087;-72
2024/01/09 00:11:22;;;;;;;7.82;3.08;;;;;;;-2.55;59.91;99385.22;4517023;31;20096;-72
2024/01/09 00:13:49;;;;;;;7.65;3.70;;;;;;;-2.59;60.05;99387.03;4517164;31;20162;-72
2024/01/09 00:16:16;;;;;;;6.78;3.53;;;;;;;-2.60;59.70;99385.34;4516791;31;20092;-72
2024/01/09 00:18:43;;;;;;;8.32;2.80;;;;;;;-2.64;59.85;99386.28;4508107;31;20088;-72
2024/01/09 00:21:10;;;;;;;8.30;3.08;;;;;;;-2.58;59.10;99390.44;4501114;31;20513;-72
2024/01/09 00:23:37;;;;;;;7.25;3.60;;;;;;;-2.63;58.58;99399.97;4501052;31;20113;-72
2024/01/09 00:26:04;;;;;;;10.68;3.37;;;;;;;-2.63;59.32;99403.38;4501027;31;20088;-72
2024/01/09 00:28:32;;;;;;;9.38;3.08;;;;;;;-2.72;59.79;99404.44;4500700;31;20457;-72
2024/01/09 00:30:59;;;;;;;8.82;3.22;;;;;;;-2.68;59.55;99411.19;4514355;31;20531;-72
2024/01/09 00:33:29;;;;;;;7.28;3.50;;;;;;;-2.64;59.97;99413.69;4516706;31;20100;-72
2024/01/09 00:35:56;;;;;;;6.30;2.62;;;;;;;-2.63;60.46;99417.94;4516664;31;20118;-72
2024/01/09 00:38:23;;;;;;;7.80;3.20;;;;;;;-2.66;59.42;99416.28;4516521;31;20244;-72
2024/01/09 00:40:50;;;;;;;7.75;3.53;;;;;;;-2.69;59.66;99411.22;4516695;31;20440;-72
2024/01/09 00:43:17;;;;;;;6.57;3.05;;;;;;;-2.65;61.23;99428.19;4515947;31;20156;-72
2024/01/09 00:45:44;;;;;;;7.70;3.15;;;;;;;-2.61;60.79;99428.97;4516667;31;20104;-72
2024/01/09 00:48:12;;;;;;;6.03;3.10;;;;;;;-2.60;59.99;99428.13;4516470;31;20118;-72
2024/01/09 00:50:39;;;;;;;6.70;3.47;;;;;;;-2.70;61.12;99433.44;4516713;31;20118;-72
2024/01/09 00:53:06;;;;;;;12.88;4.22;;;;;;;-2.70;68.11;99440.31;4502017;31;20103;-72
2024/01/09 00:55:33;;;;;;;8.90;4.43;;;;;;;-2.73;74.72;99443.78;4516643;31;20087;-72
2024/01/09 00:58:00;;;;;;;12.75;4.70;;;;;;;-2.81;77.12;99440.56;4516377;31;20400;-72
2024/01/09 01:00:27;;;;;;;10.50;4.57;;;;;;;-2.80;78.84;99444.81;4516528;31;20456;-72
2024/01/09 01:02:54;;;;;;;13.95;5.12;;;;;;;-2.74;78.99;99451.50;4516422;31;20088;-72
2024/01/09 01:05:22;;;;;;;12.30;5.30;;;;;;;-2.74;79.29;99452.37;4516378;31;20158;-72
2024/01/09 01:07:49;;;;;;;10.07;4.90;;;;;;;-2.74;80.26;99452.37;4516411;31;20099;-72
2024/01/09 01:10:16;;;;;;;12.37;5.12;;;;;;;-2.75;80.19;99454.97;4516461;31;20436;-72
2024/01/09 01:12:47;;;;;;;10.13;4.53;;;;;;;-2.71;79.85;99454.00;4516319;31;20080;-72
2024/01/09 01:15:15;;;;;;;13.90;4.28;;;;;;;-2.77;79.75;99457.56;4516292;31;20556;-72
2024/01/09 01:17:43;;;;;;;11.27;4.07;;;;;;;-2.79;79.04;99461.03;4513763;31;20464;-73
2024/01/09 01:20:10;;;;;;;11.18;3.92;;;;;;;-2.79;77.24;99461.88;4500389;31;20601;-72
2024/01/09 01:22:37;;;;;;;9.27;3.47;;;;;;;-2.72;74.86;99460.03;4500556;31;20119;-72
2024/01/09 01:25:05;;;;;;;10.35;3.40;;;;;;;-2.73;73.40;99463.47;4500305;31;20167;-72
2024/01/09 01:27:32;;;;;;;6.43;2.85;;;;;;;-2.65;69.41;99470.97;4500390;31;20509;-72
2024/01/09 01:29:59;;;;;;;6.32;2.97;;;;;;;-2.75;67.25;99473.75;4506822;31;20156;-72
2024/01/09 01:32:26;;;;;;;6.85;3.35;;;;;;;-2.73;65.70;99466.84;4516240;31;20104;-72
2024/01/09 01:34:54;;;;;;;9.27;3.53;;;;;;;-2.65;64.56;99476.09;4516189;31;20167;-72
2024/01/09 01:37:21;;;;;;;10.25;3.75;;;;;;;-2.71;63.47;99477.06;4515977;31;20099;-72
2024/01/09 01:39:48;;;;;;;7.12;3.53;;;;;;;-2.72;61.80;99472.84;4501561;31;20476;-73
2024/01/09 01:42:15;;;;;;;8.77;3.22;;;;;;;-2.72;61.83;99475.41;4516109;31;20114;-72
2024/01/09 01:44:42;;;;;;;6.35;2.85;;;;;;;-2.69;59.91;99475.34;4515929;31;20141;-73
2024/01/09 01:47:09;;;;;;;8.27;3.35;;;;;;;-2.68;59.11;99477.00;4516225;31;20157;-72
2024/01/09 01:49:37;;;;;;;7.05;2.55;;;;;;;-2.71;59.65;99477.94;4501496;31;20170;-72
2024/01/09 01:52:04;;;;;;;4.78;2.85;;;;;;;-2.62;58.48;99491.41;4516211;31;20088;-72
2024/01/09 01:54:32;;;;;;;4.37;2.65;;;;;;;-2.66;58.75;99490.66;4502477;31;20129;-72
2024/01/09 01:57:00;;;;;;;4.93;2.47;;;;;;;-2.68;58.81;99488.13;4503536;31;20095;-72
2024/01/09 01:59:27;;;;;;;9.23;2.62;;;;;;;-2.65;58.42;99491.50;4503137;31;20118;-72
2024/01/09 02:01:55;;;;;;;5.97;2.60;;;;;;;-2.64;57.04;99493.19;4517944;31;20092;-72
2024/01/09 02:04:23;;;;;;;5.15;2.33;;;;;;;-2.58;56.64;99493.03;4517807;31;20100;-73
2024/01/09 02:06:51;;;;;;;3.97;1.77;;;;;;;-2.57;55.23;99500.69;4517864;31;20117;-72
2024/01/09 02:09:18;;;;;;;5.60;2.55;;;;;;;-2.56;55.08;99502.38;4517524;31;20113;-72
2024/01/09 02:11:48;;;;;;;4.30;1.90;;;;;;;-2.55;53.70;99495.53;4517831;31;20088;-72
2024/01/09 02:14:15;;;;;;;4.00;1.92;;;;;;;-2.52;52.51;99503.97;4503482;31;20099;-72
2024/01/09 02:16:43;;;;;;;7.35;2.22;;;;;;;-2.52;52.08;99498.84;4517639;31;20088;-72
2024/01/09 02:19:10;;;;;;;6.40;2.30;;;;;;;-2.51;50.82;99494.59;4505698;31;20104;-72
2024/01/09 02:21:37;;;;;;;5.18;2.03;;;;;;;-2.52;50.08;99496.28;4501539;31;20116;-72
2024/01/09 02:24:04;;;;;;;4.18;1.73;;;;;;;-2.51;49.87;99503.09;4501803;31;20168;-72
2024/01/09 02:26:38;;;;;;;4.70;1.92;;;;;;;-2.51;50.45;99500.53;4501727;31;20182;-72
2024/01/09 02:29:26;;;;;;;4.00;1.62;;;;;;;-2.53;50.66;99502.31;4503401;31;20464;-72
2024/01/09 02:31:54;;;;;;;4.10;2.12;;;;;;;-2.54;50.10;99502.34;4503240;31;20442;-72
2024/01/09 02:34:21;;;;;;;4.40;2.05;;;;;;;-2.58;50.59;99503.28;4517641;31;20175;-72
2024/01/09 02:36:48;;;;;;;2.90;1.45;;;;;;;-2.52;50.37;99510.84;4517499;31;20099;-72
2024/01/09 02:39:15;;;;;;;2.97;1.50;;;;;;;-2.54;49.34;99512.63;4517633;31;20839;-72
2024/01/09 02:41:43;;;;;;;3.65;1.95;;;;;;;-2.47;48.89;99510.72;4517539;31;20126;-72
2024/01/09 02:44:11;;;;;;;3.85;1.70;;;;;;;-2.51;48.39;99507.41;4517720;31;20167;-72
2024/01/09 02:46:38;;;;;;;5.45;1.73;;;;;;;-2.46;47.58;99508.13;4517591;31;20162;-72
2024/01/09 02:49:05;;;;;;;3.83;1.37;;;;;;;-2.44;48.13;99508.09;4517616;31;20749;-72
2024/01/09 02:51:32;;;;;;;4.90;2.30;;;;;;;-2.44;47.06;99508.91;4517703;31;20088;-72
2024/01/09 02:53:59;;;;;;;3.97;1.83;;;;;;;-2.43;47.70;99508.06;4517542;31;20448;-72
2024/01/09 02:56:27;;;;;;;3.40;1.60;;;;;;;-2.44;47.15;99503.78;4517451;31;20224;-72
2024/01/09 02:58:54;;;;;;;2.95;1.55;;;;;;;-2.46;46.78;99505.56;4517474;31;20184;-72
2024/01/09 03:01:24;;;;;;;3.70;1.60;;;;;;;-2.45;45.94;99504.69;4517492;31;20119;-72
2024/01/09 03:03:51;;;;;;;3.92;1.80;;;;;;;-2.50;47.64;99506.50;4517550;31;20091;-72
2024/01/09 03:06:18;;;;;;;5.53;1.60;;;;;;;-2.51;47.84;99504.84;4517166;31;20160;-72
2024/01/09 03:08:48;;;;;;;3.10;1.42;;;;;;;-2.49;46.82;99510.78;4517329;31;20453;-72
2024/01/09 03:11:15;;;;;;;3.45;1.70;;;;;;;-2.46;46.71;99513.25;4517350;31;20529;-72
2024/01/09 03:13:42;;;;;;;6.07;1.58;;;;;;;-2.51;47.44;99513.37;4517291;31;20142;-72
2024/01/09 03:16:11;;;;;;;5.30;1.87;;;;;;;-2.51;46.86;99517.66;4517187;31;20139;-72
2024/01/09 03:18:39;;;;;;;5.37;1.60;;;;;;;-2.47;46.95;99526.97;4508729;31;20139;-72
2024/01/09 03:21:06;;;;;;;4.47;1.67;;;;;;;-2.42;47.12;99522.56;4501547;31;20100;-72
2024/01/09 03:23:34;;;;;;;3.62;1.60;;;;;;;-2.43;48.18;99520.06;4501283;31;20100;-72
2024/01/09 03:26:03;;;;;;;4.45;1.75;;;;;;;-2.40;47.36;99522.53;4501400;31;20547;-72
2024/01/09 03:28:31;;;;;;;3.75;1.90;;;;;;;-2.33;46.65;99526.66;4501451;31;20492;-72
2024/01/09 03:30:59;;;;;;;3.72;1.48;;;;;;;-2.30;46.81;99523.16;4514398;31;20126;-72
2024/01/09 03:33:29;;;;;;;5.80;1.95;;;;;;;-2.37;46.76;99528.44;4517144;31;20115;-72
2024/01/09 03:35:57;;;;;;;4.80;1.65;;;;;;;-2.27;47.21;99528.19;4517270;31;20110;-72
2024/01/09 03:38:25;;;;;;;2.92;1.60;;;;;;;-2.44;46.36;99531.19;4517131;31;20088;-72
2024/01/09 03:40:52;;;;;;;5.82;1.73;;;;;;;-2.42;47.64;99531.97;4516785;31;20120;-72
2024/01/09 03:43:20;;;;;;;4.95;1.60;;;;;;;-2.38;47.98;99539.56;4517188;31;20096;-72
2024/01/09 03:45:48;;;;;;;4.07;1.40;;;;;;;-2.40;46.99;99538.75;4517065;31;20091;-72
2024/01/09 03:48:15;;;;;;;3.17;1.52;;;;;;;-2.34;46.05;99540.34;4516910;31;20099;-73
2024/01/09 03:50:43;;;;;;;3.87;1.42;;;;;;;-2.45;46.08;99545.75;4517141;31;20827;-72
2024/01/09 03:53:10;;;;;;;4.37;1.77;;;;;;;-2.34;46.08;99548.06;4517183;31;20155;-72
2024/01/09 03:55:38;;;;;;;4.00;1.60;;;;;;;-2.29;46.92;99553.06;4517130;31;20465;-72
2024/01/09 03:58:06;;;;;;;5.60;1.60;;;;;;;-2.32;45.45;99557.41;4516906;31;20129;-72
2024/01/09 04:00:34;;;;;;;7.90;1.85;;;;;;;-2.36;45.45;99554.94;4516945;31;20433;-72
2024/01/09 04:03:03;;;;;;;3.15;1.35;;;;;;;-2.35;44.92;99554.91;4516929;31;20087;-72
2024/01/09 04:05:31;;;;;;;5.43;1.55;;;;;;;-2.28;45.40;99562.47;4516963;31;20154;-72
2024/01/09 04:07:58;;;;;;;3.78;1.52;;;;;;;-2.36;45.81;99566.06;4516734;31;20136;-72
2024/01/09 04:10:26;;;;;;;4.45;1.62;;;;;;;-2.28;45.89;99572.72;4516878;31;20100;-72
2024/01/09 04:12:54;;;;;;;2.08;1.20;;;;;;;-2.34;45.71;99577.09;4502428;31;20159;-72
2024/01/09 04:15:21;;;;;;;2.45;1.20;;;;;;;-2.37;46.12;99576.34;4516821;31;20091;-72
2024/01/09 04:17:49;;;;;;;4.25;1.77;;;;;;;-2.36;45.14;99575.47;4512468;31;20100;-72
2024/01/09 04:20:17;;;;;;;3.53;1.60;;;;;;;-2.38;44.76;99582.34;4500941;31;20089;-72
2024/01/09 04:22:45;;;;;;;4.32;1.37;;;;;;;-2.42;45.81;99570.47;4500816;31;20589;-72
2024/01/09 04:25:13;;;;;;;3.10;1.58;;;;;;;-2.36;45.01;99588.31;4500805;31;20502;-72
2024/01/09 04:27:40;;;;;;;4.65;1.58;;;;;;;-2.39;45.91;99576.38;4501158;31;20110;-72
2024/01/09 04:30:08;;;;;;;4.50;1.40;;;;;;;-2.39;45.98;99581.53;4508285;31;20396;-72
2024/01/09 04:32:35;;;;;;;4.25;1.85;;;;;;;-2.36;45.00;99586.56;4516676;31;20122;-72
2024/01/09 04:35:03;;;;;;;8.23;1.60;;;;;;;-2.29;45.41;99592.41;4516723;31;20092;-72
2024/01/09 04:37:30;;;;;;;9.95;1.73;;;;;;;-2.26;44.80;99591.50;4516806;31;20089;-72
2024/01/09 04:39:57;;;;;;;3.12;1.20;;;;;;;-2.38;44.70;99595.19;4516818;31;20096;-72
2024/01/09 04:42:25;;;;;;;3.15;1.35;;;;;;;-2.46;44.18;99604.78;4516569;31;20167;-72
2024/01/09 04:44:52;;;;;;;2.25;1.33;;;;;;;-2.48;44.68;99597.13;4516958;31;20115;-72
2024/01/09 04:47:19;;;;;;;2.20;1.25;;;;;;;-2.49;44.83;99603.13;4516605;31;20114;-72
2024/01/09 04:49:48;;;;;;;4.95;1.48;;;;;;;-2.51;44.86;99602.31;4516645;31;20112;-72
2024/01/09 04:52:15;;;;;;;5.28;1.80;;;;;;;-2.54;44.67;99607.53;4516580;31;20218;-72
2024/01/09 04:54:43;;;;;;;4.75;1.70;;;;;;;-2.63;45.22;99611.13;4502210;31;20465;-72
2024/01/09 04:57:10;;;;;;;2.35;0.90;;;;;;;-2.65;44.64;99604.34;4516595;31;20107;-72
2024/01/09 04:59:40;;;;;;;4.57;1.42;;;;;;;-2.65;43.78;99612.03;4516765;31;20541;-72
2024/01/09 05:02:07;;;;;;;6.35;1.60;;;;;;;-2.65;45.14;99607.75;4516479;31;20079;-72
2024/01/09 05:04:34;;;;;;;3.70;1.83;;;;;;;-2.59;44.64;99622.16;4516539;31;20083;-72
2024/01/09 05:07:01;;;;;;;4.68;1.45;;;;;;;-2.60;45.24;99623.06;4516335;31;20116;-72
2024/01/09 05:09:29;;;;;;;2.85;1.33;;;;;;;-2.61;45.39;99629.06;4516362;31;20543;-72
2024/01/09 05:11:56;;;;;;;2.37;1.15;;;;;;;-2.63;44.74;99630.81;4516474;31;20092;-72
2024/01/09 05:14:23;;;;;;;5.93;1.50;;;;;;;-2.61;44.81;99635.00;4516488;31;20088;-72
2024/01/09 05:16:51;;;;;;;2.97;1.37;;;;;;;-2.57;44.12;99638.38;4516419;31;20098;-72
2024/01/09 05:19:20;;;;;;;2.12;1.23;;;;;;;-2.59;44.01;99632.41;4503467;31;20108;-72
2024/01/09 05:21:48;;;;;;;4.75;1.30;;;;;;;-2.61;44.59;99631.62;4500338;31;20162;-72
2024/01/09 05:24:17;;;;;;;4.75;2.40;;;;;;;-2.52;44.42;99644.25;4500250;31;20547;-72
2024/01/09 05:26:45;;;;;;;2.35;1.30;;;;;;;-2.54;44.86;99641.72;4500400;31;20155;-72
2024/01/09 05:29:12;;;;;;;2.92;1.15;;;;;;;-2.54;45.11;99649.41;4501149;31;20096;-72
2024/01/09 05:31:44;;;;;;;3.67;1.67;;;;;;;-2.52;45.13;99655.34;4505128;31;20178;-73
2024/01/09 05:34:13;;;;;;;6.68;1.67;;;;;;;-2.39;44.76;99658.50;4506188;31;20183;-73
2024/01/09 05:36:42;;;;;;;3.33;1.30;;;;;;;-2.50;44.50;99661.31;4504760;31;81166;-72
2024/01/09 05:39:09;;;;;;;4.30;1.80;;;;;;;-2.50;44.39;99663.88;4507230;31;20157;-72
2024/01/09 05:41:39;;;;;;;4.37;1.25;;;;;;;-2.48;43.89;99666.41;4508277;31;20139;-72
2024/01/09 05:44:07;;;;;;;5.93;1.70;;;;;;;-2.42;44.57;99673.97;4505481;31;20096;-72
2024/01/09 05:46:34;;;;;;;3.30;1.37;;;;;;;-2.46;43.41;99671.50;4503531;31;20122;-72
2024/01/09 05:49:02;;;;;;;2.58;1.23;;;;;;;-2.48;44.14;99671.53;4505387;31;20516;-72
2024/01/09 05:51:29;;;;;;;4.18;1.20;;;;;;;-2.43;44.67;99674.00;4506775;31;20131;-72
2024/01/09 05:53:58;;;;;;;3.72;1.95;;;;;;;-2.50;43.89;99676.69;4507536;31;20449;-72
2024/01/09 05:56:25;;;;;;;5.70;1.98;;;;;;;-2.53;44.73;99679.31;4495577;31;20092;-72
2024/01/09 05:58:53;;;;;;;2.35;1.48;;;;;;;-2.53;44.24;99676.75;4505933;31;20103;-72
2024/01/09 06:01:20;;;;;;;10.80;1.45;;;;;;;-2.47;44.33;99686.03;4505972;31;20130;-72
2024/01/09 06:03:48;;;;;;;3.08;1.62;;;;;;;-2.52;44.98;99683.56;4506051;31;20193;-73
2024/01/09 06:06:15;;;;;;;4.40;2.30;;;;;;;-2.47;44.57;99691.16;4509589;31;20083;-72
2024/01/09 06:08:43;;;;;;;2.95;1.30;;;;;;;-2.44;44.50;99696.22;4510099;31;20148;-73
2024/01/09 06:11:10;;;;;;;20.85;2.35;;;;;;;-2.43;44.64;99700.47;4506718;31;20454;-73
2024/01/09 06:13:38;;;;;;;13.32;2.37;;;;;;;-2.47;45.68;99706.53;4507049;31;20095;-72
2024/01/09 06:16:05;;;;;;;9.75;1.95;;;;;;;-2.52;44.79;99704.06;4509127;31;20091;-72
2024/01/09 06:18:34;;;;;;;16.55;2.53;;;;;;;-2.48;44.97;99709.16;4504563;31;20146;-72
2024/01/09 06:21:02;;;;;;;4.75;1.50;;;;;;;-2.44;46.12;99711.63;4505965;31;20096;-72
2024/01/09 06:23:28;;;;;;;5.55;1.58;;;;;;;-2.51;46.29;99715.22;4506769;31;20088;-73
2024/01/09 06:25:56;;;;;;;20.75;2.10;;;;;;;-2.46;45.59;99721.06;4508431;31;20088;-73
2024/01/09 06:28:23;;;;;;;9.60;2.28;;;;;;;-2.39;45.48;99727.78;4491504;31;20487;-72
2024/01/09 06:30:51;;;;;;;69.87;4.22;;;;;;;-2.34;45.70;99735.38;4508206;31;20504;-72
2024/01/09 06:33:18;;;;;;;6.03;1.48;;;;;;;-2.33;46.53;99735.34;4506885;31;20139;-72
2024/01/09 06:35:45;;;;;;;13.35;1.90;;;;;;;-2.45;45.42;99738.16;4507762;31;20096;-72
2024/01/09 06:38:15;;;;;;;11.90;2.17;;;;;;;-2.45;45.43;99743.31;4505623;31;20084;-73
2024/01/09 06:40:42;;;;;;;24.15;2.22;;;;;;;-2.49;46.15;99749.37;4507756;31;20221;-73
2024/01/09 06:43:10;;;;;;;9.43;2.53;;;;;;;-2.49;46.07;99751.94;4512187;31;20121;-72
2024/01/09 06:45:38;;;;;;;28.65;3.05;;;;;;;-2.44;45.52;99752.66;4512829;31;20079;-73
2024/01/09 06:48:05;;;;;;;21.35;2.00;;;;;;;-2.39;45.95;99756.00;4513629;31;20468;-73
2024/01/09 06:50:33;;;;;;;24.42;2.33;;;;;;;-2.36;45.98;99750.81;4502192;31;20104;-73
2024/01/09 06:53:04;;;;;;;30.80;3.62;;;;;;;-2.39;46.02;99756.00;4502605;31;20100;-74
2024/01/09 06:55:32;;;;;;;26.73;2.62;;;;;;;-2.32;46.42;99772.97;4508675;31;20095;-74
2024/01/09 06:57:59;;;;;;;4.68;1.50;;;;;;;-2.28;46.80;99772.91;4508766;31;20108;-74
2024/01/09 07:00:27;;;;;;;13.13;2.95;;;;;;;-2.23;45.31;99776.22;4508345;31;20160;-73
2024/01/09 07:02:55;;;;;;;6.78;1.58;;;;;;;-2.25;45.52;99781.38;4506678;31;20100;-73
2024/01/09 07:05:22;;;;;;;7.28;1.92;;;;;;;-2.23;45.94;99778.78;4502135;31;20515;-73
2024/01/09 07:07:49;;;;;;;7.57;1.87;;;;;;;-2.23;45.65;99783.91;4509277;31;20444;-73
2024/01/09 07:10:18;;;;;;;19.15;2.03;;;;;;;-2.25;45.00;99783.94;4506981;31;20475;-74
2024/01/09 07:12:46;;;;;;;6.03;2.30;;;;;;;-2.22;44.52;99804.41;4500821;31;20126;-74
2024/01/09 07:15:14;;;;;;;4.40;2.25;;;;;;;-2.27;44.80;99800.25;4504491;31;20118;-74
2024/01/09 07:17:44;;;;;;;8.52;2.62;;;;;;;-2.24;44.86;99800.19;4514545;31;20092;-74
2024/01/09 07:20:12;;;;;;;11.68;3.08;;;;;;;-2.23;45.01;99805.28;4506380;31;20122;-73
2024/01/09 07:22:40;;;;;;;5.15;1.92;;;;;;;-2.16;45.32;99812.00;4504274;31;20129;-73
2024/01/09 07:25:13;;;;;;;4.85;2.45;;;;;;;-2.18;45.12;99812.88;4511472;31;20479;-74
2024/01/09 07:27:53;;;;;;;7.53;2.30;;;;;;;-2.21;45.64;99810.37;4507066;31;20222;-73
2024/01/09 07:30:20;;;;;;;3.50;1.70;;;;;;;-2.08;45.54;99823.84;4501699;31;20118;-72
2024/01/09 07:32:48;;;;;;;32.38;2.95;;;;;;;-2.03;44.14;99820.31;4502695;31;20110;-74
2024/01/09 07:35:15;;;;;;;12.85;1.90;;;;;;;-2.01;45.11;99833.94;4516329;31;20232;-73
2024/01/09 07:37:43;;;;;;;9.07;1.83;;;;;;;-2.01;44.77;99836.50;4502926;31;20487;-73
2024/01/09 07:40:10;;;;;;;8.70;1.52;;;;;;;-1.99;45.45;99839.03;4507325;31;20131;-74
2024/01/09 07:42:38;;;;;;;11.82;2.75;;;;;;;-2.00;44.61;99839.91;4510630;31;20117;-74
2024/01/09 07:45:19;;;;;;;7.53;1.50;;;;;;;-1.99;45.32;99842.44;4506025;31;20110;-77
2024/01/09 07:47:49;;;;;;;5.37;1.95;;;;;;;-1.90;45.29;99845.72;4509364;31;20108;-74
2024/01/09 07:50:16;;;;;;;3.37;1.65;;;;;;;-1.88;44.78;99846.53;4504229;31;20096;-74
2024/01/09 07:52:44;;;;;;;19.27;2.58;;;;;;;-1.85;45.16;99849.84;4503342;31;20750;-75
2024/01/09 07:55:11;;;;;;;6.18;2.08;;;;;;;-1.73;45.05;99856.47;4509708;31;20119;-73
2024/01/09 07:57:39;;;;;;;4.90;2.00;;;;;;;-1.70;43.96;99864.09;4507247;31;20100;-75
2024/01/09 08:00:07;;;;;;;11.18;2.00;;;;;;;-1.68;44.35;99858.94;4500514;31;20080;-73
2024/01/09 08:02:38;;;;;;;4.60;2.10;;;;;;;-1.54;45.27;99861.22;4502961;31;20505;-72
2024/01/09 08:05:05;;;;;;;7.15;2.10;;;;;;;-1.65;44.67;99877.72;4499787;31;20091;-74
2024/01/09 08:07:33;;;;;;;8.13;2.80;;;;;;;-1.69;44.66;99870.94;4508234;31;20119;-73
2024/01/09 08:10:00;;;;;;;4.87;2.28;;;;;;;-1.62;44.19;99869.94;4504551;31;20140;-75
2024/01/09 08:12:28;;;;;;;7.45;2.40;;;;;;;-1.48;43.74;99868.81;4500734;31;20104;-75
2024/01/09 08:14:55;;;;;;;6.62;2.65;;;;;;;-1.40;43.82;99881.47;4505411;31;20552;-77
2024/01/09 08:17:25;;;;;;;7.12;2.28;;;;;;;-1.47;44.19;99870.47;4506512;31;20160;-74
2024/01/09 08:19:52;;;;;;;7.22;2.08;;;;;;;-1.36;43.73;99872.78;4508795;31;20554;-74
2024/01/09 08:22:22;;;;;;;4.90;1.98;;;;;;;-1.38;44.00;99880.53;4505465;31;20138;-76
2024/01/09 08:24:49;;;;;;;4.45;1.98;;;;;;;-1.31;43.16;99882.09;4510245;31;20111;-75
2024/01/09 08:27:17;;;;;;;2.83;1.73;;;;;;;-1.38;43.63;99883.12;4506298;31;20123;-75
2024/01/09 08:29:45;;;;;;;3.65;1.40;;;;;;;-1.16;44.47;99886.06;4515428;31;20500;-73
2024/01/09 08:32:15;;;;;;;6.70;2.15;;;;;;;-1.11;44.10;99899.63;4508431;31;20100;-74
2024/01/09 08:34:43;;;;;;;11.82;2.78;;;;;;;-1.17;43.71;99888.66;4515305;31;20417;-74
2024/01/09 08:37:13;;;;;;;4.18;1.95;;;;;;;-1.13;43.82;99901.41;4500612;31;20127;-74
2024/01/09 08:39:40;;;;;;;5.07;2.03;;;;;;;-0.98;45.12;99900.22;4503835;31;20512;-75
2024/01/09 08:42:11;;;;;;;10.52;2.78;;;;;;;-0.96;43.42;99901.00;4509236;31;20908;-76
2024/01/09 08:44:39;;;;;;;13.98;2.40;;;;;;;-0.68;46.31;99902.94;4513202;31;20113;-74
2024/01/09 08:47:06;;;;;;;7.32;2.22;;;;;;;-0.81;42.76;99912.66;4504098;31;20126;-75
2024/01/09 08:49:34;;;;;;;12.10;1.80;;;;;;;-0.68;43.66;99913.22;4511452;31;20127;-77
2024/01/09 08:52:02;;;;;;;22.83;2.55;;;;;;;-0.62;41.94;99914.78;4502684;31;20111;-76
2024/01/09 08:54:29;;;;;;;8.25;2.35;;;;;;;-0.59;41.91;99918.13;4509992;31;20178;-74
2024/01/09 08:57:00;;;;;;;6.30;1.70;;;;;;;-0.68;40.36;99913.22;4503727;31;20120;-75
2024/01/09 08:59:28;;;;;;;3.20;1.65;;;;;;;-0.95;40.34;99928.44;4505509;31;20092;-76
2024/01/09 09:01:56;;;;;;;8.05;1.87;;;;;;;-0.77;40.46;99922.00;4504089;31;20155;-74
2024/01/09 09:04:23;;;;;;;4.95;1.65;;;;;;;-0.84;41.68;99922.19;4515839;31;20083;-74
2024/01/09 09:06:50;;;;;;;5.20;1.50;;;;;;;-0.68;43.54;99933.81;4508935;31;20112;-75
2024/01/09 09:09:18;;;;;;;5.82;1.90;;;;;;;-0.74;41.42;99928.81;4503234;31;20152;-76
2024/01/09 09:11:45;;;;;;;3.62;1.73;;;;;;;-0.75;41.90;99932.25;4509975;31;20146;-75
2024/01/09 09:14:13;;;;;;;4.45;1.60;;;;;;;-0.75;41.46;99934.81;4501306;31;20103;-77
2024/01/09 09:16:41;;;;;;;3.12;1.77;;;;;;;-0.60;40.78;99937.03;4511039;31;20554;-76
2024/01/09 09:19:10;;;;;;;13.20;2.20;;;;;;;-0.39;43.40;99940.78;4511882;31;20099;-76
2024/01/09 09:21:38;;;;;;;5.50;1.70;;;;;;;-0.48;40.96;99935.03;4511807;31;20159;-76
2024/01/09 09:24:06;;;;;;;7.78;2.10;;;;;;;-0.64;40.18;99940.53;4508306;31;20424;-76
2024/01/09 09:26:33;;;;;;;3.97;2.05;;;;;;;-0.77;43.11;99940.00;4502970;31;20103;-76
2024/01/09 09:29:01;;;;;;;14.02;2.67;;;;;;;-0.46;42.70;99944.41;4503565;31;20160;-76
2024/01/09 09:31:45;;;;;;;9.45;3.08;;;;;;;-0.52;42.40;99949.69;4502383;31;20088;-76
2024/01/09 09:34:29;;;;;;;32.35;2.97;;;;;;;-0.52;41.78;99938.56;4508661;31;20130;-76
2024/01/09 09:36:57;;;;;;;13.15;1.55;;;;;;;-0.47;41.33;99947.00;4506625;31;20154;-76
2024/01/09 09:39:24;;;;;;;8.57;2.28;;;;;;;-0.60;40.89;99947.31;4500246;31;20472;-77
2024/01/09 09:41:57;;;;;;;6.65;2.50;;;;;;;-0.49;42.44;99949.63;4502966;31;20145;-76
2024/01/09 09:44:25;;;;;;;8.13;2.42;;;;;;;-0.42;44.19;99943.44;4507746;31;20091;-76
2024/01/09 09:46:52;;;;;;;5.55;2.53;;;;;;;-0.23;42.21;99941.25;4500751;31;20783;-76
2024/01/09 09:49:22;;;;;;;18.40;3.22;;;;;;;-0.44;40.34;99946.94;4507105;31;20166;-76
2024/01/09 09:51:51;;;;;;;4.53;1.90;;;;;;;-0.39;41.54;99945.09;4505038;31;20118;-76
2024/01/09 09:54:19;;;;;;;8.57;1.90;;;;;;;-0.44;40.44;99949.50;4511042;31;20083;-76
2024/01/09 09:56:48;;;;;;;10.05;2.42;;;;;;;-0.32;41.86;99938.91;4509713;31;20108;-77
2024/01/09 09:59:16;;;;;;;5.72;2.12;;;;;;;-0.26;40.72;99937.91;4503132;31;20122;-75
2024/01/09 10:01:45;;;;;;;5.45;1.70;;;;;;;-0.06;43.85;99938.22;4507290;31;20119;-76
2024/01/09 10:04:48;;;;;;;5.97;2.20;;;;;;;-0.26;40.28;99946.50;4506102;31;20127;-77
2024/01/09 10:07:19;;;;;;;8.05;1.70;;;;;;;-0.37;41.33;99938.19;4500417;31;20096;-76
2024/01/09 10:09:49;;;;;;;6.15;2.50;;;;;;;-0.19;40.60;99937.69;4506047;31;20100;-75
2024/01/09 10:12:19;;;;;;;4.22;1.70;;;;;;;-0.34;39.71;99943.25;4498910;31;20091;-75
2024/01/09 10:15:12;;;;;;;18.45;2.37;;;;;;;-0.12;43.50;99940.09;4503261;31;20138;-75
2024/01/09 10:17:40;;;;;;;9.05;1.95;;;;;;;0.02;40.52;99945.75;4501665;31;20087;-76
2024/01/09 10:20:13;;;;;;;5.20;2.47;;;;;;;-0.09;40.37;99937.44;4507742;31;20092;-77
2024/01/09 10:22:41;;;;;;;12.40;2.95;;;;;;;-0.02;40.78;99934.66;4507479;31;20099;-76
2024/01/09 10:25:11;;;;;;;6.55;2.65;;;;;;;0.05;40.15;99943.09;4509452;31;20528;-74
2024/01/09 10:27:40;;;;;;;14.90;2.85;;;;;;;0.09;40.51;99944.72;4510308;31;20159;-74
2024/01/09 10:30:10;;;;;;;6.25;2.17;;;;;;;0.26;39.93;99949.38;4509249;31;20123;-74
2024/01/09 10:32:39;;;;;;;9.93;2.65;;;;;;;0.17;40.61;99940.16;4505238;31;20091;-75
2024/01/09 10:35:13;;;;;;;15.60;2.95;;;;;;;0.33;42.06;99939.72;4502814;31;20392;-73
2024/01/09 10:37:43;;;;;;;7.43;2.95;;;;;;;0.50;43.95;99947.84;4503392;31;20149;-73
2024/01/09 10:40:13;;;;;;;14.98;2.45;;;;;;;0.30;39.75;99956.16;4507665;31;20104;-75
2024/01/09 10:42:45;;;;;;;12.95;3.25;;;;;;;0.16;40.34;99950.53;4506495;31;20112;-74
2024/01/09 10:45:14;;;;;;;9.30;2.95;;;;;;;0.37;42.59;99946.50;4514939;31;20088;-75
2024/01/09 10:47:43;;;;;;;10.57;2.90;;;;;;;0.64;41.08;99952.59;4506649;31;20096;-75
2024/01/09 10:50:13;;;;;;;9.60;2.83;;;;;;;0.58;40.57;99950.19;4510059;31;20071;-74
2024/01/09 10:52:42;;;;;;;5.03;1.83;;;;;;;0.57;42.08;99952.81;4491367;31;20853;-74
2024/01/09 10:55:10;;;;;;;7.15;2.35;;;;;;;0.30;39.21;99955.28;4496518;31;20141;-75
2024/01/09 10:57:40;;;;;;;21.60;2.95;;;;;;;0.30;40.21;99955.28;4505344;31;20112;-73
2024/01/09 11:00:11;;;;;;;8.35;2.70;;;;;;;0.39;41.03;99949.88;4497441;31;20096;-75
2024/01/09 11:02:39;;;;;;;11.38;1.95;;;;;;;0.41;42.29;99953.28;4507312;31;20083;-74
2024/01/09 11:05:10;;;;;;;6.25;2.17;;;;;;;0.25;42.19;99962.31;4506587;31;20087;-74
2024/01/09 11:07:37;;;;;;;11.98;2.62;;;;;;;0.29;40.15;99963.94;4505250;31;20159;-75
2024/01/09 11:10:06;;;;;;;7.28;2.58;;;;;;;0.45;42.02;99970.31;4504575;31;20092;-74
2024/01/09 11:12:39;;;;;;;3.22;1.65;;;;;;;0.43;42.61;99961.78;4500063;31;20096;-74
2024/01/09 11:15:20;;;;;;;17.15;2.97;;;;;;;0.17;39.52;99968.50;4490807;31;20484;-76
2024/01/09 11:17:52;;;;;;;4.95;2.62;;;;;;;0.02;40.11;99978.41;4500569;31;20101;-77
2024/01/09 11:20:21;;;;;;;25.15;4.07;;;;;;;0.00;41.78;99973.28;4495835;31;20130;-77
2024/01/09 11:22:48;;;;;;;4.97;1.80;;;;;;;-0.10;41.54;99982.97;4502750;31;20154;-76
2024/01/09 11:25:20;;;;;;;6.45;2.15;;;;;;;-0.16;41.34;99970.25;4501726;31;20174;-77
2024/01/09 11:27:52;;;;;;;18.50;2.70;;;;;;;-0.10;41.16;99977.00;4506188;31;20172;-77
2024/01/09 11:30:27;;;;;;;27.67;3.62;;;;;;;-0.11;42.65;99976.13;4504555;31;20808;-75
2024/01/09 11:33:25;;;;;;;20.00;2.97;;;;;;;-0.14;41.64;99978.78;4509297;31;20087;-76
2024/01/09 11:35:54;;;;;;;37.22;2.95;;;;;;;0.00;42.82;99975.88;4512236;31;20084;-74
2024/01/09 11:38:23;;;;;;;8.70;2.47;;;;;;;0.03;41.82;99974.91;4509330;31;20159;-74